SBUG/URG METAR and TAF weather

Enter ICAO airport designator
Station Type Date Time Source
SBUG METAR 2022/08/03 16:00 UTC NOAA

SBUG 031600Z 10010KT 5000 RA SCT020 FEW040TCU BKN100 17/16 Q1010


Station Type Date Time Source
SBUG Decoded METAR 2022/08/03 16:00 UTC NOAA

Uruguaiana Aeroporto , Brazil (SBUG) 29-47S 057-02W 74M
Aug 03, 2022 - 12:00 PM EDT / 2022.08.03 1600 UTC
Wind: from the E (100 degrees) at 12 MPH (10 KT):0
Visibility: 3 mile(s):0
Sky conditions: mostly cloudy
Weather: rain; Towering cumulus clouds observed
Temperature: 62 F (17 C)
Dew Point: 60 F (16 C)
Relative Humidity: 93%
Pressure (altimeter): 29.83 in. Hg (1010 hPa)
ob: SBUG 031600Z 10010KT 5000 RA SCT020 FEW040TCU BKN100 17/16 Q1010
cycle: 16

Station Type Date Time Source
SBUG TAF 2022/08/16 18:03 UTC NOAA

TAF TAF SBUG 161500Z 1618/1706 06007KT CAVOK TX19/1618Z TN12/1703Z
BECMG 1620/1622 09005KT
RMK PFF

Example: see airport list